createdAt,value
2022-12-03T00:04:02.961Z,963.21
2022-12-03T00:09:04.607Z,963.24
2022-12-03T00:14:07.178Z,963.17
2022-12-03T00:19:07.867Z,963.16
2022-12-03T00:24:09.903Z,963.15
2022-12-03T00:29:11.165Z,963.11
2022-12-03T00:34:12.795Z,963.12
2022-12-03T00:39:14.263Z,963.12
2022-12-03T00:44:16.335Z,963.15
2022-12-03T00:49:18.070Z,963.2
2022-12-03T00:54:19.724Z,963.15
2022-12-03T00:59:21.771Z,963.15
2022-12-03T01:04:22.938Z,963.13
2022-12-03T01:09:24.283Z,963.19
2022-12-03T01:14:26.288Z,963.2
2022-12-03T01:19:27.417Z,963.15
2022-12-03T01:24:29.453Z,963.1
2022-12-03T01:29:30.867Z,963.15
2022-12-03T01:34:32.270Z,963.15
2022-12-03T01:39:34.274Z,963.14
2022-12-03T01:44:36.036Z,963.19
2022-12-03T01:49:37.180Z,963.19
2022-12-03T01:54:38.852Z,963.2
2022-12-03T01:59:40.225Z,963.25
2022-12-03T02:04:41.532Z,963.25
2022-12-03T02:09:43.736Z,963.29
2022-12-03T02:14:45.317Z,963.3
2022-12-03T02:19:46.521Z,963.29
2022-12-03T02:24:48.721Z,963.22
2022-12-03T02:29:50.500Z,963.14
2022-12-03T02:34:52.666Z,963.2
2022-12-03T02:39:54.283Z,963.26
2022-12-03T02:44:59.381Z,963.31
2022-12-03T02:49:58.014Z,963.21
2022-12-03T02:55:00.202Z,963.28
2022-12-03T03:00:01.460Z,963.24
2022-12-03T03:05:03.466Z,963.2
2022-12-03T03:10:04.753Z,963.22
2022-12-03T03:15:06.697Z,963.22
2022-12-03T03:20:08.127Z,963.25
2022-12-03T03:25:10.162Z,963.16
2022-12-03T03:30:11.915Z,963.22
2022-12-03T03:35:13.263Z,963.13
2022-12-03T03:40:15.326Z,962.99
2022-12-03T03:45:17.002Z,962.97
2022-12-03T03:50:18.549Z,962.92
2022-12-03T03:55:20.126Z,962.99
2022-12-03T04:00:22.032Z,963.09
2022-12-03T04:05:23.684Z,963.05
2022-12-03T04:10:25.278Z,963
2022-12-03T04:15:27.000Z,962.96
2022-12-03T04:20:28.075Z,962.91
2022-12-03T04:25:29.284Z,962.97
2022-12-03T04:30:31.059Z,962.98
2022-12-03T04:35:32.896Z,962.95
2022-12-03T04:40:34.586Z,963.01
2022-12-03T04:45:36.219Z,963.06
2022-12-03T04:50:37.320Z,962.97
2022-12-03T04:55:38.922Z,963.11
2022-12-03T05:00:40.411Z,963.2
2022-12-03T05:05:42.172Z,963.14
2022-12-03T05:10:43.558Z,963.16
2022-12-03T05:15:44.982Z,963.21
2022-12-03T05:20:52.889Z,963.22
2022-12-03T05:25:48.005Z,963.14
2022-12-03T06:06:01.858Z,963.24
2022-12-03T06:11:03.073Z,963.22
2022-12-03T06:26:07.775Z,963.25
2022-12-03T06:31:09.483Z,963.23
2022-12-03T06:46:14.239Z,963.06
2022-12-03T06:56:21.463Z,963.12
2022-12-03T07:01:19.693Z,963.11
2022-12-03T07:06:20.778Z,963.12
2022-12-03T07:11:22.839Z,963.11
2022-12-03T07:16:24.454Z,963.05
2022-12-03T07:21:25.968Z,962.98
2022-12-03T07:26:27.730Z,962.9
2022-12-03T07:31:30.007Z,962.82
2022-12-03T07:36:31.584Z,962.95
2022-12-03T07:41:32.959Z,963.01
2022-12-03T07:46:35.065Z,962.97
2022-12-03T07:51:36.516Z,962.96
2022-12-03T07:56:38.240Z,963.04
2022-12-03T08:01:40.527Z,963.06
2022-12-03T08:06:42.124Z,963.08
2022-12-03T08:11:43.405Z,963.1
2022-12-03T08:16:45.028Z,963.07
2022-12-03T08:21:46.585Z,962.96
2022-12-03T08:26:48.127Z,962.81
2022-12-03T08:31:49.628Z,962.87
2022-12-03T08:36:51.484Z,962.85
2022-12-03T08:41:52.736Z,962.99
2022-12-03T08:46:54.043Z,963.07
2022-12-03T08:51:55.426Z,963.13
2022-12-03T08:56:57.268Z,963.11
2022-12-03T09:01:58.922Z,963.06
2022-12-03T09:07:00.997Z,963.08
2022-12-03T09:12:02.899Z,963.02
2022-12-03T09:17:04.136Z,963.04
2022-12-03T09:22:05.674Z,962.9
2022-12-03T09:27:07.594Z,962.96
2022-12-03T09:32:11.460Z,962.93
2022-12-03T09:37:10.632Z,962.96
2022-12-03T09:42:12.680Z,962.8
2022-12-03T09:47:14.415Z,962.85
2022-12-03T09:52:16.301Z,962.97
2022-12-03T09:57:17.809Z,962.85
2022-12-03T10:02:19.463Z,962.83
2022-12-03T10:07:20.986Z,962.75
2022-12-03T10:12:22.197Z,962.69
2022-12-03T10:17:23.543Z,962.59
2022-12-03T10:22:25.302Z,962.44
2022-12-03T10:27:27.094Z,962.43
2022-12-03T10:32:28.549Z,962.4
2022-12-03T10:37:30.528Z,962.37
2022-12-03T10:42:32.479Z,962.29
2022-12-03T10:47:34.488Z,962.27
2022-12-03T10:52:35.962Z,962.21
2022-12-03T10:57:41.145Z,962.16
2022-12-03T11:02:39.023Z,962.08
2022-12-03T11:07:41.106Z,962.14
2022-12-03T11:12:42.857Z,962.13
2022-12-03T11:17:44.214Z,962.06
2022-12-03T11:22:45.322Z,962.05
2022-12-03T11:27:47.142Z,962.03
2022-12-03T11:32:49.250Z,962.05
2022-12-03T11:37:50.411Z,962.08
2022-12-03T11:42:52.489Z,962.07
2022-12-03T11:47:54.244Z,962.16
2022-12-03T11:52:55.954Z,962.01
2022-12-03T11:57:57.298Z,961.91
2022-12-03T12:02:58.910Z,961.96
2022-12-03T12:08:00.393Z,962
2022-12-03T12:13:02.075Z,962.03
2022-12-03T12:18:04.142Z,961.93
2022-12-03T12:23:05.401Z,961.84
2022-12-03T12:28:07.199Z,961.75
2022-12-03T12:33:08.595Z,961.71
2022-12-03T12:38:10.600Z,961.67
2022-12-03T12:43:15.464Z,961.54
2022-12-03T12:48:14.529Z,961.6
2022-12-03T12:53:16.385Z,961.62
2022-12-03T12:58:18.178Z,961.5
2022-12-03T13:03:20.087Z,961.37
2022-12-03T13:08:22.253Z,961.37
2022-12-03T13:13:23.986Z,961.3
2022-12-03T13:18:25.470Z,961.29
2022-12-03T13:23:27.011Z,961.27
2022-12-03T13:28:28.532Z,961.33
2022-12-03T13:33:30.104Z,961.19
2022-12-03T13:38:31.976Z,961.14
2022-12-03T13:43:33.285Z,961.13
2022-12-03T13:48:35.009Z,961
2022-12-03T13:53:36.581Z,961.12
2022-12-03T13:58:37.818Z,961.12
2022-12-03T14:03:39.092Z,961.15
2022-12-03T14:08:40.564Z,961.2
2022-12-03T14:13:48.662Z,961.06
2022-12-03T14:18:50.574Z,961.13
2022-12-03T14:23:51.857Z,961.2
2022-12-03T14:28:53.613Z,961.21
2022-12-03T14:33:54.926Z,961.15
2022-12-03T14:38:56.906Z,961.14
2022-12-03T14:43:58.306Z,961.15
2022-12-03T14:49:00.120Z,961.06
2022-12-03T14:54:01.856Z,961.03
2022-12-03T14:59:03.039Z,961.02
2022-12-03T15:04:04.550Z,961.03
2022-12-03T15:09:06.375Z,961.15
2022-12-03T15:14:07.549Z,961.1
2022-12-03T15:19:09.055Z,961.07
2022-12-03T15:24:10.777Z,961.01
2022-12-03T15:29:12.257Z,960.93
2022-12-03T15:34:17.409Z,960.99
2022-12-03T15:39:15.354Z,961.03
2022-12-03T15:44:17.190Z,961.11
2022-12-03T15:49:18.698Z,961.09
2022-12-03T15:54:20.276Z,961.05
2022-12-03T15:59:22.341Z,960.97
2022-12-03T16:04:24.502Z,960.97
2022-12-03T16:09:27.510Z,960.83
2022-12-03T16:14:28.329Z,960.85
2022-12-03T16:19:29.487Z,960.96
2022-12-03T16:24:30.662Z,961.06
2022-12-03T16:29:32.505Z,960.97
2022-12-03T16:34:33.971Z,960.95
2022-12-03T16:39:35.479Z,960.94
2022-12-03T16:44:36.797Z,960.97
2022-12-03T16:49:38.676Z,960.96
2022-12-03T16:54:40.559Z,960.97
2022-12-03T16:59:41.920Z,961
2022-12-03T17:04:43.822Z,960.93
2022-12-03T17:09:45.251Z,960.92
2022-12-03T17:14:46.562Z,960.84
2022-12-03T17:19:47.972Z,960.73
2022-12-03T17:24:49.137Z,960.67
2022-12-03T17:29:51.459Z,960.6
2022-12-03T17:34:53.083Z,960.67
2022-12-03T17:39:54.639Z,960.54
2022-12-03T17:44:56.384Z,960.51
2022-12-03T17:49:58.369Z,960.55
2022-12-03T17:55:11.189Z,960.65
2022-12-03T18:00:01.413Z,960.71
2022-12-03T18:05:02.842Z,960.59
2022-12-03T18:10:04.410Z,960.59
2022-12-03T18:15:06.282Z,960.6
2022-12-03T18:20:07.711Z,960.55
2022-12-03T18:25:09.583Z,960.58
2022-12-03T18:30:11.073Z,960.55
2022-12-03T18:35:13.147Z,960.58
2022-12-03T18:40:14.993Z,960.53
2022-12-03T18:45:17.134Z,960.54
2022-12-03T18:50:19.407Z,960.49
2022-12-03T18:55:21.538Z,960.45
2022-12-03T19:00:23.107Z,960.33
2022-12-03T19:05:25.188Z,960.43
2022-12-03T19:10:27.351Z,960.54
2022-12-03T19:15:28.524Z,960.54
2022-12-03T19:20:30.426Z,960.46
2022-12-03T19:25:32.360Z,960.37
2022-12-03T19:30:33.708Z,960.4
2022-12-03T19:35:35.718Z,960.36
2022-12-03T19:40:37.571Z,960.23
2022-12-03T19:45:39.376Z,960.24
2022-12-03T19:50:40.972Z,960.3
2022-12-03T19:55:42.256Z,960.26
2022-12-03T20:00:44.134Z,960.23
2022-12-03T20:05:46.354Z,960.26
2022-12-03T20:20:51.894Z,960.12
2022-12-03T20:35:56.583Z,960.01
2022-12-03T20:40:58.050Z,959.87
2022-12-03T20:51:01.592Z,959.94
2022-12-03T21:01:05.147Z,959.93
2022-12-03T21:06:07.290Z,959.91
2022-12-03T21:11:08.864Z,959.86
2022-12-03T21:16:10.909Z,959.78
2022-12-03T21:21:12.891Z,959.68
2022-12-03T21:31:16.740Z,959.72
2022-12-03T21:36:18.244Z,959.54
2022-12-03T21:41:20.121Z,959.52
2022-12-03T21:47:08.549Z,959.52
2022-12-03T21:51:23.799Z,959.56
2022-12-03T21:56:25.551Z,959.52
2022-12-03T22:01:26.972Z,959.58
2022-12-03T22:06:28.681Z,959.6
2022-12-03T22:11:30.818Z,959.5
2022-12-03T22:16:32.193Z,959.63
2022-12-03T22:21:34.235Z,959.72
2022-12-03T22:26:35.757Z,959.64
2022-12-03T22:31:37.480Z,959.65
2022-12-03T22:36:39.219Z,959.65
2022-12-03T22:41:40.924Z,959.49
2022-12-03T22:46:42.979Z,959.46
2022-12-03T22:51:44.514Z,959.43
2022-12-03T22:56:46.385Z,959.38
2022-12-03T23:11:51.419Z,959.28
2022-12-03T23:16:52.900Z,959.13
2022-12-03T23:21:54.736Z,959.04
2022-12-03T23:26:56.280Z,959.06
2022-12-03T23:31:58.188Z,959
2022-12-03T23:37:00.161Z,959
2022-12-03T23:42:01.956Z,959.07
2022-12-03T23:47:03.878Z,958.92
2022-12-03T23:52:05.256Z,958.83
2022-12-03T23:57:07.420Z,958.82
